sensor_id;sensor_type;location;lat;lon;timestamp;P1;durP1;ratioP1;P2;durP2;ratioP2
56997;SDS011;42890;44.244;22.530;2023-04-03T00:02:21;93.88;;;37.30;;
56997;SDS011;42890;44.244;22.530;2023-04-03T00:04:47;105.28;;;43.45;;
56997;SDS011;42890;44.244;22.530;2023-04-03T00:07:13;75.78;;;36.15;;
56997;SDS011;42890;44.244;22.530;2023-04-03T00:09:39;45.58;;;24.38;;
56997;SDS011;42890;44.244;22.530;2023-04-03T00:12:06;47.28;;;24.15;;
56997;SDS011;42890;44.244;22.530;2023-04-03T00:14:32;114.43;;;45.78;;
56997;SDS011;42890;44.244;22.530;2023-04-03T00:16:58;58.97;;;28.77;;
56997;SDS011;42890;44.244;22.530;2023-04-03T00:19:24;52.15;;;28.83;;
56997;SDS011;42890;44.244;22.530;2023-04-03T00:21:50;44.10;;;22.98;;
56997;SDS011;42890;44.244;22.530;2023-04-03T00:24:18;30.98;;;15.50;;
56997;SDS011;42890;44.244;22.530;2023-04-03T00:26:44;45.58;;;23.23;;
56997;SDS011;42890;44.244;22.530;2023-04-03T00:29:10;23.15;;;12.30;;
56997;SDS011;42890;44.244;22.530;2023-04-03T00:31:36;22.02;;;11.88;;
56997;SDS011;42890;44.244;22.530;2023-04-03T00:34:02;45.67;;;20.58;;
56997;SDS011;42890;44.244;22.530;2023-04-03T00:36:28;31.45;;;19.10;;
56997;SDS011;42890;44.244;22.530;2023-04-03T00:38:55;17.88;;;11.43;;
56997;SDS011;42890;44.244;22.530;2023-04-03T00:41:21;15.27;;;9.77;;
56997;SDS011;42890;44.244;22.530;2023-04-03T00:43:47;7.72;;;5.93;;
56997;SDS011;42890;44.244;22.530;2023-04-03T00:46:13;103.57;;;34.28;;
56997;SDS011;42890;44.244;22.530;2023-04-03T00:48:40;18.63;;;9.95;;
56997;SDS011;42890;44.244;22.530;2023-04-03T00:51:09;22.58;;;10.98;;
56997;SDS011;42890;44.244;22.530;2023-04-03T00:53:38;11.07;;;6.22;;
56997;SDS011;42890;44.244;22.530;2023-04-03T00:56:06;18.65;;;8.45;;
56997;SDS011;42890;44.244;22.530;2023-04-03T00:58:37;36.88;;;15.60;;
56997;SDS011;42890;44.244;22.530;2023-04-03T01:01:05;16.50;;;9.13;;
56997;SDS011;42890;44.244;22.530;2023-04-03T01:03:32;22.40;;;12.20;;
56997;SDS011;42890;44.244;22.530;2023-04-03T01:05:58;8.73;;;5.60;;
56997;SDS011;42890;44.244;22.530;2023-04-03T01:08:24;11.23;;;7.00;;
56997;SDS011;42890;44.244;22.530;2023-04-03T01:10:51;10.73;;;6.78;;
56997;SDS011;42890;44.244;22.530;2023-04-03T01:13:25;15.25;;;9.80;;
56997;SDS011;42890;44.244;22.530;2023-04-03T01:15:51;10.90;;;6.00;;
56997;SDS011;42890;44.244;22.530;2023-04-03T01:18:17;10.80;;;5.95;;
56997;SDS011;42890;44.244;22.530;2023-04-03T01:23:24;19.67;;;12.98;;
56997;SDS011;42890;44.244;22.530;2023-04-03T01:25:52;8.10;;;5.95;;
56997;SDS011;42890;44.244;22.530;2023-04-03T01:28:21;11.02;;;7.90;;
56997;SDS011;42890;44.244;22.530;2023-04-03T01:31:12;11.90;;;8.80;;
56997;SDS011;42890;44.244;22.530;2023-04-03T01:33:34;20.20;;;12.75;;
56997;SDS011;42890;44.244;22.530;2023-04-03T01:36:01;12.40;;;8.32;;
56997;SDS011;42890;44.244;22.530;2023-04-03T01:38:27;9.38;;;7.03;;
56997;SDS011;42890;44.244;22.530;2023-04-03T01:40:53;22.88;;;12.88;;
56997;SDS011;42890;44.244;22.530;2023-04-03T01:43:19;18.35;;;11.48;;
56997;SDS011;42890;44.244;22.530;2023-04-03T01:45:45;15.88;;;9.80;;
56997;SDS011;42890;44.244;22.530;2023-04-03T01:48:12;17.08;;;12.05;;
56997;SDS011;42890;44.244;22.530;2023-04-03T01:50:38;16.35;;;10.00;;
56997;SDS011;42890;44.244;22.530;2023-04-03T01:53:05;21.38;;;14.65;;
56997;SDS011;42890;44.244;22.530;2023-04-03T01:55:31;19.20;;;12.75;;
56997;SDS011;42890;44.244;22.530;2023-04-03T01:57:57;24.10;;;15.32;;
56997;SDS011;42890;44.244;22.530;2023-04-03T02:00:23;11.98;;;8.95;;
56997;SDS011;42890;44.244;22.530;2023-04-03T02:02:49;27.17;;;15.50;;
56997;SDS011;42890;44.244;22.530;2023-04-03T02:05:15;27.85;;;18.27;;
56997;SDS011;42890;44.244;22.530;2023-04-03T02:07:41;21.75;;;15.10;;
56997;SDS011;42890;44.244;22.530;2023-04-03T02:10:08;24.10;;;16.67;;
56997;SDS011;42890;44.244;22.530;2023-04-03T02:12:34;19.25;;;13.23;;
56997;SDS011;42890;44.244;22.530;2023-04-03T02:15:00;25.50;;;17.38;;
56997;SDS011;42890;44.244;22.530;2023-04-03T02:17:26;26.73;;;17.23;;
56997;SDS011;42890;44.244;22.530;2023-04-03T02:19:52;24.48;;;16.77;;
56997;SDS011;42890;44.244;22.530;2023-04-03T02:22:18;35.38;;;22.88;;
56997;SDS011;42890;44.244;22.530;2023-04-03T02:24:45;27.13;;;17.33;;
56997;SDS011;42890;44.244;22.530;2023-04-03T02:27:11;31.20;;;19.45;;
56997;SDS011;42890;44.244;22.530;2023-04-03T02:29:37;18.15;;;12.23;;
56997;SDS011;42890;44.244;22.530;2023-04-03T02:32:03;19.75;;;13.68;;
56997;SDS011;42890;44.244;22.530;2023-04-03T02:34:30;12.50;;;9.40;;
56997;SDS011;42890;44.244;22.530;2023-04-03T02:36:56;11.95;;;8.50;;
56997;SDS011;42890;44.244;22.530;2023-04-03T02:39:22;10.55;;;7.72;;
56997;SDS011;42890;44.244;22.530;2023-04-03T02:41:48;12.32;;;8.65;;
56997;SDS011;42890;44.244;22.530;2023-04-03T02:44:14;37.22;;;28.35;;
56997;SDS011;42890;44.244;22.530;2023-04-03T02:46:41;35.85;;;21.02;;
56997;SDS011;42890;44.244;22.530;2023-04-03T02:49:07;28.42;;;14.07;;
56997;SDS011;42890;44.244;22.530;2023-04-03T02:51:33;15.45;;;8.80;;
56997;SDS011;42890;44.244;22.530;2023-04-03T02:53:59;52.53;;;26.90;;
56997;SDS011;42890;44.244;22.530;2023-04-03T02:56:25;95.90;;;49.63;;
56997;SDS011;42890;44.244;22.530;2023-04-03T02:58:52;54.80;;;33.25;;
56997;SDS011;42890;44.244;22.530;2023-04-03T03:01:18;37.70;;;23.55;;
56997;SDS011;42890;44.244;22.530;2023-04-03T03:03:44;14.60;;;10.52;;
56997;SDS011;42890;44.244;22.530;2023-04-03T03:06:12;12.00;;;8.10;;
56997;SDS011;42890;44.244;22.530;2023-04-03T03:08:38;3.83;;;3.42;;
56997;SDS011;42890;44.244;22.530;2023-04-03T03:11:05;3.53;;;3.22;;
56997;SDS011;42890;44.244;22.530;2023-04-03T03:13:31;3.33;;;3.13;;
56997;SDS011;42890;44.244;22.530;2023-04-03T03:15:57;7.03;;;5.18;;
56997;SDS011;42890;44.244;22.530;2023-04-03T03:18:23;5.95;;;5.22;;
56997;SDS011;42890;44.244;22.530;2023-04-03T03:20:53;5.78;;;5.18;;
56997;SDS011;42890;44.244;22.530;2023-04-03T03:23:20;5.55;;;5.05;;
56997;SDS011;42890;44.244;22.530;2023-04-03T03:25:47;5.65;;;5.13;;
56997;SDS011;42890;44.244;22.530;2023-04-03T03:28:13;6.22;;;5.63;;
56997;SDS011;42890;44.244;22.530;2023-04-03T03:30:39;8.50;;;7.13;;
56997;SDS011;42890;44.244;22.530;2023-04-03T03:33:05;6.78;;;5.82;;
56997;SDS011;42890;44.244;22.530;2023-04-03T03:35:32;6.28;;;5.60;;
56997;SDS011;42890;44.244;22.530;2023-04-03T03:37:58;6.90;;;6.22;;
56997;SDS011;42890;44.244;22.530;2023-04-03T03:40:24;5.88;;;5.38;;
56997;SDS011;42890;44.244;22.530;2023-04-03T03:42:50;8.02;;;5.28;;
56997;SDS011;42890;44.244;22.530;2023-04-03T03:45:16;6.80;;;6.10;;
56997;SDS011;42890;44.244;22.530;2023-04-03T03:47:42;5.97;;;4.97;;
56997;SDS011;42890;44.244;22.530;2023-04-03T03:50:09;7.03;;;6.43;;
56997;SDS011;42890;44.244;22.530;2023-04-03T03:52:35;9.32;;;8.43;;
56997;SDS011;42890;44.244;22.530;2023-04-03T03:55:01;7.55;;;6.80;;
56997;SDS011;42890;44.244;22.530;2023-04-03T03:57:28;7.15;;;6.55;;
56997;SDS011;42890;44.244;22.530;2023-04-03T03:59:54;6.50;;;5.90;;
56997;SDS011;42890;44.244;22.530;2023-04-03T04:02:20;5.30;;;4.90;;
56997;SDS011;42890;44.244;22.530;2023-04-03T04:04:46;6.13;;;5.63;;
56997;SDS011;42890;44.244;22.530;2023-04-03T04:07:13;7.60;;;6.90;;
56997;SDS011;42890;44.244;22.530;2023-04-03T04:09:39;23.05;;;7.25;;
56997;SDS011;42890;44.244;22.530;2023-04-03T04:12:05;7.32;;;6.63;;
56997;SDS011;42890;44.244;22.530;2023-04-03T04:14:31;10.25;;;7.90;;
56997;SDS011;42890;44.244;22.530;2023-04-03T04:16:57;6.07;;;5.57;;
56997;SDS011;42890;44.244;22.530;2023-04-03T04:19:23;6.75;;;5.97;;
56997;SDS011;42890;44.244;22.530;2023-04-03T04:21:49;5.82;;;5.32;;
56997;SDS011;42890;44.244;22.530;2023-04-03T04:24:16;7.53;;;6.82;;
56997;SDS011;42890;44.244;22.530;2023-04-03T04:26:42;23.23;;;20.52;;
56997;SDS011;42890;44.244;22.530;2023-04-03T04:29:08;8.77;;;7.88;;
56997;SDS011;42890;44.244;22.530;2023-04-03T04:31:35;8.68;;;7.88;;
56997;SDS011;42890;44.244;22.530;2023-04-03T04:34:01;9.15;;;8.32;;
56997;SDS011;42890;44.244;22.530;2023-04-03T04:36:27;28.15;;;20.25;;
56997;SDS011;42890;44.244;22.530;2023-04-03T04:38:53;13.82;;;12.40;;
56997;SDS011;42890;44.244;22.530;2023-04-03T04:41:20;32.22;;;22.77;;
56997;SDS011;42890;44.244;22.530;2023-04-03T04:43:48;48.80;;;29.20;;
56997;SDS011;42890;44.244;22.530;2023-04-03T04:46:14;37.30;;;26.17;;
56997;SDS011;42890;44.244;22.530;2023-04-03T04:48:40;40.50;;;26.05;;
56997;SDS011;42890;44.244;22.530;2023-04-03T04:51:07;32.78;;;21.85;;
56997;SDS011;42890;44.244;22.530;2023-04-03T04:53:33;31.08;;;21.85;;
56997;SDS011;42890;44.244;22.530;2023-04-03T04:55:59;70.10;;;35.53;;
56997;SDS011;42890;44.244;22.530;2023-04-03T04:58:26;51.67;;;28.73;;
56997;SDS011;42890;44.244;22.530;2023-04-03T05:00:59;43.72;;;26.60;;
56997;SDS011;42890;44.244;22.530;2023-04-03T05:03:25;33.83;;;26.92;;
56997;SDS011;42890;44.244;22.530;2023-04-03T05:05:51;21.52;;;17.52;;
56997;SDS011;42890;44.244;22.530;2023-04-03T05:08:17;24.63;;;18.23;;
56997;SDS011;42890;44.244;22.530;2023-04-03T05:10:44;22.50;;;18.50;;
56997;SDS011;42890;44.244;22.530;2023-04-03T05:13:10;15.68;;;13.27;;
56997;SDS011;42890;44.244;22.530;2023-04-03T05:15:37;18.70;;;13.60;;
56997;SDS011;42890;44.244;22.530;2023-04-03T05:18:03;17.80;;;14.30;;
56997;SDS011;42890;44.244;22.530;2023-04-03T05:20:30;21.60;;;12.98;;
56997;SDS011;42890;44.244;22.530;2023-04-03T05:22:56;20.55;;;12.15;;
56997;SDS011;42890;44.244;22.530;2023-04-03T05:25:22;23.58;;;18.02;;
56997;SDS011;42890;44.244;22.530;2023-04-03T05:27:48;17.73;;;14.48;;
56997;SDS011;42890;44.244;22.530;2023-04-03T05:30:15;16.55;;;14.75;;
56997;SDS011;42890;44.244;22.530;2023-04-03T05:32:41;8.95;;;8.18;;
56997;SDS011;42890;44.244;22.530;2023-04-03T05:35:07;10.70;;;9.70;;
56997;SDS011;42890;44.244;22.530;2023-04-03T05:37:34;9.57;;;8.77;;
56997;SDS011;42890;44.244;22.530;2023-04-03T05:40:00;9.90;;;8.95;;
56997;SDS011;42890;44.244;22.530;2023-04-03T05:42:27;9.18;;;8.23;;
56997;SDS011;42890;44.244;22.530;2023-04-03T05:44:53;9.43;;;8.52;;
56997;SDS011;42890;44.244;22.530;2023-04-03T05:47:19;9.05;;;7.93;;
56997;SDS011;42890;44.244;22.530;2023-04-03T05:49:45;8.43;;;7.57;;
56997;SDS011;42890;44.244;22.530;2023-04-03T05:52:20;7.55;;;6.68;;
56997;SDS011;42890;44.244;22.530;2023-04-03T05:54:47;8.00;;;7.30;;
56997;SDS011;42890;44.244;22.530;2023-04-03T05:57:13;17.52;;;14.48;;
56997;SDS011;42890;44.244;22.530;2023-04-03T05:59:41;7.55;;;6.88;;
56997;SDS011;42890;44.244;22.530;2023-04-03T06:02:07;7.72;;;6.85;;
56997;SDS011;42890;44.244;22.530;2023-04-03T06:04:33;8.93;;;6.55;;
56997;SDS011;42890;44.244;22.530;2023-04-03T06:06:59;7.57;;;6.68;;
56997;SDS011;42890;44.244;22.530;2023-04-03T06:09:26;6.80;;;6.20;;
56997;SDS011;42890;44.244;22.530;2023-04-03T06:11:54;8.43;;;6.38;;
56997;SDS011;42890;44.244;22.530;2023-04-03T06:14:21;6.10;;;5.60;;
56997;SDS011;42890;44.244;22.530;2023-04-03T06:16:47;6.38;;;5.78;;
56997;SDS011;42890;44.244;22.530;2023-04-03T06:19:13;8.20;;;7.22;;
56997;SDS011;42890;44.244;22.530;2023-04-03T06:21:39;7.07;;;6.38;;
56997;SDS011;42890;44.244;22.530;2023-04-03T06:24:05;15.63;;;10.43;;
56997;SDS011;42890;44.244;22.530;2023-04-03T06:26:32;4.65;;;4.25;;
56997;SDS011;42890;44.244;22.530;2023-04-03T06:28:59;4.25;;;3.90;;
56997;SDS011;42890;44.244;22.530;2023-04-03T06:31:25;3.75;;;3.45;;
56997;SDS011;42890;44.244;22.530;2023-04-03T06:33:51;4.13;;;3.70;;
56997;SDS011;42890;44.244;22.530;2023-04-03T06:36:18;5.28;;;3.65;;
56997;SDS011;42890;44.244;22.530;2023-04-03T06:38:45;3.45;;;3.20;;
56997;SDS011;42890;44.244;22.530;2023-04-03T06:41:12;3.67;;;3.38;;
56997;SDS011;42890;44.244;22.530;2023-04-03T06:43:38;9.43;;;6.30;;
56997;SDS011;42890;44.244;22.530;2023-04-03T06:46:04;4.63;;;3.63;;
56997;SDS011;42890;44.244;22.530;2023-04-03T06:48:30;12.07;;;8.00;;
56997;SDS011;42890;44.244;22.530;2023-04-03T06:50:56;3.42;;;3.13;;
56997;SDS011;42890;44.244;22.530;2023-04-03T06:53:23;2.70;;;2.50;;
56997;SDS011;42890;44.244;22.530;2023-04-03T06:55:49;3.50;;;3.20;;
56997;SDS011;42890;44.244;22.530;2023-04-03T06:58:16;11.00;;;4.85;;
56997;SDS011;42890;44.244;22.530;2023-04-03T07:00:42;3.28;;;3.00;;
56997;SDS011;42890;44.244;22.530;2023-04-03T07:03:09;4.28;;;2.95;;
56997;SDS011;42890;44.244;22.530;2023-04-03T07:05:35;9.75;;;6.65;;
56997;SDS011;42890;44.244;22.530;2023-04-03T07:08:01;30.83;;;18.77;;
56997;SDS011;42890;44.244;22.530;2023-04-03T07:10:27;75.15;;;36.28;;
56997;SDS011;42890;44.244;22.530;2023-04-03T07:12:53;125.47;;;45.45;;
56997;SDS011;42890;44.244;22.530;2023-04-03T07:15:19;98.50;;;35.97;;
56997;SDS011;42890;44.244;22.530;2023-04-03T07:17:45;66.97;;;34.40;;
56997;SDS011;42890;44.244;22.530;2023-04-03T07:20:11;42.97;;;21.85;;
56997;SDS011;42890;44.244;22.530;2023-04-03T07:22:38;44.97;;;23.85;;
56997;SDS011;42890;44.244;22.530;2023-04-03T07:25:04;76.25;;;35.75;;
56997;SDS011;42890;44.244;22.530;2023-04-03T07:27:32;102.68;;;43.17;;
56997;SDS011;42890;44.244;22.530;2023-04-03T07:29:58;72.10;;;34.50;;
56997;SDS011;42890;44.244;22.530;2023-04-03T07:32:24;50.53;;;22.52;;
56997;SDS011;42890;44.244;22.530;2023-04-03T07:34:50;56.78;;;23.38;;
56997;SDS011;42890;44.244;22.530;2023-04-03T07:37:16;30.58;;;16.75;;
56997;SDS011;42890;44.244;22.530;2023-04-03T07:39:43;16.33;;;12.13;;
56997;SDS011;42890;44.244;22.530;2023-04-03T07:42:10;50.85;;;29.85;;
56997;SDS011;42890;44.244;22.530;2023-04-03T07:44:37;26.02;;;17.33;;
56997;SDS011;42890;44.244;22.530;2023-04-03T07:47:03;25.33;;;17.92;;
56997;SDS011;42890;44.244;22.530;2023-04-03T07:49:29;13.40;;;11.60;;
56997;SDS011;42890;44.244;22.530;2023-04-03T07:51:56;19.70;;;12.68;;
56997;SDS011;42890;44.244;22.530;2023-04-03T07:54:23;33.08;;;19.25;;
56997;SDS011;42890;44.244;22.530;2023-04-03T07:56:49;19.40;;;14.25;;
56997;SDS011;42890;44.244;22.530;2023-04-03T07:59:16;8.52;;;7.60;;
56997;SDS011;42890;44.244;22.530;2023-04-03T08:01:42;8.43;;;6.80;;
56997;SDS011;42890;44.244;22.530;2023-04-03T08:04:08;6.32;;;4.90;;
56997;SDS011;42890;44.244;22.530;2023-04-03T08:06:35;32.35;;;21.83;;
56997;SDS011;42890;44.244;22.530;2023-04-03T08:09:02;7.88;;;7.07;;
56997;SDS011;42890;44.244;22.530;2023-04-03T08:11:29;5.00;;;4.60;;
56997;SDS011;42890;44.244;22.530;2023-04-03T08:13:56;4.50;;;4.10;;
56997;SDS011;42890;44.244;22.530;2023-04-03T08:16:22;12.23;;;9.50;;
56997;SDS011;42890;44.244;22.530;2023-04-03T08:18:51;4.03;;;3.72;;
56997;SDS011;42890;44.244;22.530;2023-04-03T08:21:18;4.93;;;3.55;;
56997;SDS011;42890;44.244;22.530;2023-04-03T08:23:44;24.02;;;17.25;;
56997;SDS011;42890;44.244;22.530;2023-04-03T08:26:11;7.03;;;5.15;;
56997;SDS011;42890;44.244;22.530;2023-04-03T08:28:38;11.20;;;8.98;;
56997;SDS011;42890;44.244;22.530;2023-04-03T08:31:06;6.32;;;5.25;;
56997;SDS011;42890;44.244;22.530;2023-04-03T08:33:34;4.18;;;3.85;;
56997;SDS011;42890;44.244;22.530;2023-04-03T08:36:02;3.78;;;3.47;;
56997;SDS011;42890;44.244;22.530;2023-04-03T08:38:28;8.02;;;6.90;;
56997;SDS011;42890;44.244;22.530;2023-04-03T08:46:26;3.80;;;3.25;;
56997;SDS011;42890;44.244;22.530;2023-04-03T08:48:58;3.63;;;3.08;;
56997;SDS011;42890;44.244;22.530;2023-04-03T08:51:25;5.25;;;4.75;;
56997;SDS011;42890;44.244;22.530;2023-04-03T08:53:57;4.80;;;4.32;;
56997;SDS011;42890;44.244;22.530;2023-04-03T08:56:24;3.17;;;2.97;;
56997;SDS011;42890;44.244;22.530;2023-04-03T08:59:00;3.53;;;3.22;;
56997;SDS011;42890;44.244;22.530;2023-04-03T09:01:34;3.35;;;3.13;;
56997;SDS011;42890;44.244;22.530;2023-04-03T09:04:01;3.83;;;3.47;;
56997;SDS011;42890;44.244;22.530;2023-04-03T09:06:31;4.22;;;3.83;;
56997;SDS011;42890;44.244;22.530;2023-04-03T09:21:48;7.68;;;4.07;;
56997;SDS011;42890;44.244;22.530;2023-04-03T09:24:15;39.05;;;25.58;;
56997;SDS011;42890;44.244;22.530;2023-04-03T09:26:52;53.20;;;34.38;;
56997;SDS011;42890;44.244;22.530;2023-04-03T09:29:20;8.48;;;6.53;;
56997;SDS011;42890;44.244;22.530;2023-04-03T09:31:48;11.70;;;3.95;;
56997;SDS011;42890;44.244;22.530;2023-04-03T09:34:20;3.75;;;3.38;;
56997;SDS011;42890;44.244;22.530;2023-04-03T09:36:49;3.40;;;3.10;;
56997;SDS011;42890;44.244;22.530;2023-04-03T09:39:20;5.68;;;5.18;;
56997;SDS011;42890;44.244;22.530;2023-04-03T09:44:23;3.40;;;3.08;;
56997;SDS011;42890;44.244;22.530;2023-04-03T09:46:50;4.55;;;3.67;;
56997;SDS011;42890;44.244;22.530;2023-04-03T09:49:16;3.42;;;3.15;;
56997;SDS011;42890;44.244;22.530;2023-04-03T09:51:43;16.83;;;4.57;;
56997;SDS011;42890;44.244;22.530;2023-04-03T09:54:30;8.73;;;4.28;;
56997;SDS011;42890;44.244;22.530;2023-04-03T09:56:57;4.38;;;3.75;;
56997;SDS011;42890;44.244;22.530;2023-04-03T09:59:24;4.22;;;3.92;;
56997;SDS011;42890;44.244;22.530;2023-04-03T10:01:58;4.55;;;4.00;;
56997;SDS011;42890;44.244;22.530;2023-04-03T10:04:25;20.00;;;5.38;;
56997;SDS011;42890;44.244;22.530;2023-04-03T10:06:58;8.48;;;3.85;;
56997;SDS011;42890;44.244;22.530;2023-04-03T10:09:26;4.40;;;4.00;;
56997;SDS011;42890;44.244;22.530;2023-04-03T10:12:09;3.80;;;3.50;;
56997;SDS011;42890;44.244;22.530;2023-04-03T10:19:46;3.97;;;3.53;;
56997;SDS011;42890;44.244;22.530;2023-04-03T10:22:52;4.47;;;3.53;;
56997;SDS011;42890;44.244;22.530;2023-04-03T10:27:49;5.28;;;4.88;;
56997;SDS011;42890;44.244;22.530;2023-04-03T10:30:29;4.93;;;4.53;;
56997;SDS011;42890;44.244;22.530;2023-04-03T10:33:39;5.70;;;5.07;;
56997;SDS011;42890;44.244;22.530;2023-04-03T10:38:19;5.88;;;5.30;;
56997;SDS011;42890;44.244;22.530;2023-04-03T10:40:52;6.75;;;6.15;;
56997;SDS011;42890;44.244;22.530;2023-04-03T10:43:25;5.45;;;4.95;;
56997;SDS011;42890;44.244;22.530;2023-04-03T10:53:39;6.80;;;6.10;;
56997;SDS011;42890;44.244;22.530;2023-04-03T10:56:22;5.63;;;4.65;;
56997;SDS011;42890;44.244;22.530;2023-04-03T10:59:02;5.00;;;4.50;;
56997;SDS011;42890;44.244;22.530;2023-04-03T11:01:33;5.45;;;5.05;;
56997;SDS011;42890;44.244;22.530;2023-04-03T11:04:00;5.18;;;4.68;;
56997;SDS011;42890;44.244;22.530;2023-04-03T11:07:15;8.80;;;4.90;;
56997;SDS011;42890;44.244;22.530;2023-04-03T11:09:19;4.05;;;3.47;;
56997;SDS011;42890;44.244;22.530;2023-04-03T11:11:45;4.57;;;3.80;;
56997;SDS011;42890;44.244;22.530;2023-04-03T11:25:06;7.95;;;4.90;;
56997;SDS011;42890;44.244;22.530;2023-04-03T11:27:38;5.73;;;5.20;;
56997;SDS011;42890;44.244;22.530;2023-04-03T11:30:09;7.53;;;5.85;;
56997;SDS011;42890;44.244;22.530;2023-04-03T11:35:04;9.88;;;9.02;;
56997;SDS011;42890;44.244;22.530;2023-04-03T11:37:36;27.38;;;24.88;;
56997;SDS011;42890;44.244;22.530;2023-04-03T11:40:47;18.55;;;16.95;;
56997;SDS011;42890;44.244;22.530;2023-04-03T11:42:51;24.10;;;21.50;;
56997;SDS011;42890;44.244;22.530;2023-04-03T11:53:03;25.48;;;21.48;;
56997;SDS011;42890;44.244;22.530;2023-04-03T12:16:04;13.65;;;12.35;;
56997;SDS011;42890;44.244;22.530;2023-04-03T12:18:41;14.63;;;13.32;;
56997;SDS011;42890;44.244;22.530;2023-04-03T12:21:08;14.90;;;13.57;;
56997;SDS011;42890;44.244;22.530;2023-04-03T12:23:35;13.73;;;12.60;;
56997;SDS011;42890;44.244;22.530;2023-04-03T12:26:05;10.30;;;9.40;;
56997;SDS011;42890;44.244;22.530;2023-04-03T12:28:40;11.00;;;10.10;;
56997;SDS011;42890;44.244;22.530;2023-04-03T12:31:08;14.63;;;13.23;;
56997;SDS011;42890;44.244;22.530;2023-04-03T12:36:26;15.77;;;14.45;;
56997;SDS011;42890;44.244;22.530;2023-04-03T12:39:10;17.15;;;15.52;;
56997;SDS011;42890;44.244;22.530;2023-04-03T12:44:37;18.90;;;17.20;;
56997;SDS011;42890;44.244;22.530;2023-04-03T12:47:16;30.88;;;27.83;;
56997;SDS011;42890;44.244;22.530;2023-04-03T12:49:44;57.90;;;51.50;;
56997;SDS011;42890;44.244;22.530;2023-04-03T12:52:18;34.20;;;30.70;;
56997;SDS011;42890;44.244;22.530;2023-04-03T12:55:03;26.98;;;24.42;;
56997;SDS011;42890;44.244;22.530;2023-04-03T12:57:35;20.33;;;18.33;;
56997;SDS011;42890;44.244;22.530;2023-04-03T13:00:18;29.23;;;26.33;;
56997;SDS011;42890;44.244;22.530;2023-04-03T13:02:45;23.15;;;20.80;;
56997;SDS011;42890;44.244;22.530;2023-04-03T13:05:13;39.67;;;31.65;;
56997;SDS011;42890;44.244;22.530;2023-04-03T13:07:41;22.25;;;19.95;;
56997;SDS011;42890;44.244;22.530;2023-04-03T13:12:44;26.92;;;20.55;;
56997;SDS011;42890;44.244;22.530;2023-04-03T13:15:16;16.48;;;12.30;;
56997;SDS011;42890;44.244;22.530;2023-04-03T13:17:43;39.13;;;24.58;;
56997;SDS011;42890;44.244;22.530;2023-04-03T13:20:10;22.58;;;16.90;;
56997;SDS011;42890;44.244;22.530;2023-04-03T13:22:38;24.73;;;19.85;;
56997;SDS011;42890;44.244;22.530;2023-04-03T13:25:09;34.20;;;22.30;;
56997;SDS011;42890;44.244;22.530;2023-04-03T13:27:36;31.35;;;21.50;;
56997;SDS011;42890;44.244;22.530;2023-04-03T13:30:04;35.10;;;25.83;;
56997;SDS011;42890;44.244;22.530;2023-04-03T13:32:31;14.57;;;13.30;;
56997;SDS011;42890;44.244;22.530;2023-04-03T13:34:58;13.40;;;12.18;;
56997;SDS011;42890;44.244;22.530;2023-04-03T13:37:32;17.92;;;15.23;;
56997;SDS011;42890;44.244;22.530;2023-04-03T13:42:33;20.13;;;18.02;;
56997;SDS011;42890;44.244;22.530;2023-04-03T13:45:18;13.50;;;12.15;;
56997;SDS011;42890;44.244;22.530;2023-04-03T13:47:45;16.65;;;14.93;;
56997;SDS011;42890;44.244;22.530;2023-04-03T13:52:39;14.68;;;13.38;;
56997;SDS011;42890;44.244;22.530;2023-04-03T13:57:52;21.55;;;19.30;;
56997;SDS011;42890;44.244;22.530;2023-04-03T14:03:00;35.53;;;28.88;;
56997;SDS011;42890;44.244;22.530;2023-04-03T14:05:26;18.73;;;16.92;;
56997;SDS011;42890;44.244;22.530;2023-04-03T14:07:53;21.17;;;19.17;;
56997;SDS011;42890;44.244;22.530;2023-04-03T14:10:19;22.23;;;20.00;;
56997;SDS011;42890;44.244;22.530;2023-04-03T14:12:45;19.35;;;17.48;;
56997;SDS011;42890;44.244;22.530;2023-04-03T14:15:16;23.13;;;20.92;;
56997;SDS011;42890;44.244;22.530;2023-04-03T14:17:42;17.10;;;15.30;;
56997;SDS011;42890;44.244;22.530;2023-04-03T14:20:15;29.80;;;22.77;;
56997;SDS011;42890;44.244;22.530;2023-04-03T14:22:41;18.90;;;17.13;;
56997;SDS011;42890;44.244;22.530;2023-04-03T14:25:08;15.32;;;13.70;;
56997;SDS011;42890;44.244;22.530;2023-04-03T14:27:39;17.52;;;16.05;;
56997;SDS011;42890;44.244;22.530;2023-04-03T14:30:07;17.58;;;16.08;;
56997;SDS011;42890;44.244;22.530;2023-04-03T14:32:34;26.83;;;24.13;;
56997;SDS011;42890;44.244;22.530;2023-04-03T14:35:00;31.02;;;27.88;;
56997;SDS011;42890;44.244;22.530;2023-04-03T14:37:27;18.23;;;16.63;;
56997;SDS011;42890;44.244;22.530;2023-04-03T14:39:55;35.50;;;28.45;;
56997;SDS011;42890;44.244;22.530;2023-04-03T14:42:23;18.33;;;16.58;;
56997;SDS011;42890;44.244;22.530;2023-04-03T14:44:50;28.33;;;22.90;;
56997;SDS011;42890;44.244;22.530;2023-04-03T14:47:19;24.00;;;21.35;;
56997;SDS011;42890;44.244;22.530;2023-04-03T14:49:46;24.80;;;17.98;;
56997;SDS011;42890;44.244;22.530;2023-04-03T14:52:18;41.58;;;26.52;;
56997;SDS011;42890;44.244;22.530;2023-04-03T14:54:44;38.67;;;27.80;;
56997;SDS011;42890;44.244;22.530;2023-04-03T14:57:11;30.25;;;23.20;;
56997;SDS011;42890;44.244;22.530;2023-04-03T14:59:39;16.10;;;14.23;;
56997;SDS011;42890;44.244;22.530;2023-04-03T15:04:50;15.10;;;12.27;;
56997;SDS011;42890;44.244;22.530;2023-04-03T15:07:16;29.88;;;19.33;;
56997;SDS011;42890;44.244;22.530;2023-04-03T15:09:42;10.32;;;9.20;;
56997;SDS011;42890;44.244;22.530;2023-04-03T15:12:09;14.20;;;11.05;;
56997;SDS011;42890;44.244;22.530;2023-04-03T15:14:35;8.70;;;7.55;;
56997;SDS011;42890;44.244;22.530;2023-04-03T15:17:01;15.60;;;11.68;;
56997;SDS011;42890;44.244;22.530;2023-04-03T15:19:35;31.63;;;22.27;;
56997;SDS011;42890;44.244;22.530;2023-04-03T15:22:01;9.57;;;7.07;;
56997;SDS011;42890;44.244;22.530;2023-04-03T15:24:27;7.80;;;7.07;;
56997;SDS011;42890;44.244;22.530;2023-04-03T15:26:54;8.07;;;7.28;;
56997;SDS011;42890;44.244;22.530;2023-04-03T15:29:20;7.35;;;6.65;;
56997;SDS011;42890;44.244;22.530;2023-04-03T15:31:46;7.70;;;6.90;;
56997;SDS011;42890;44.244;22.530;2023-04-03T15:34:14;9.45;;;6.65;;
56997;SDS011;42890;44.244;22.530;2023-04-03T15:36:41;8.15;;;7.45;;
56997;SDS011;42890;44.244;22.530;2023-04-03T15:39:07;10.00;;;7.53;;
56997;SDS011;42890;44.244;22.530;2023-04-03T15:41:33;8.35;;;7.55;;
56997;SDS011;42890;44.244;22.530;2023-04-03T15:43:59;7.65;;;6.85;;
56997;SDS011;42890;44.244;22.530;2023-04-03T15:46:25;8.10;;;7.30;;
56997;SDS011;42890;44.244;22.530;2023-04-03T15:48:51;8.15;;;7.40;;
56997;SDS011;42890;44.244;22.530;2023-04-03T15:51:18;8.23;;;7.45;;
56997;SDS011;42890;44.244;22.530;2023-04-03T15:53:44;7.43;;;6.75;;
56997;SDS011;42890;44.244;22.530;2023-04-03T15:56:10;8.55;;;7.70;;
56997;SDS011;42890;44.244;22.530;2023-04-03T15:58:37;10.05;;;7.85;;
56997;SDS011;42890;44.244;22.530;2023-04-03T16:01:03;7.20;;;6.60;;
56997;SDS011;42890;44.244;22.530;2023-04-03T16:03:29;7.50;;;6.80;;
56997;SDS011;42890;44.244;22.530;2023-04-03T16:05:56;7.95;;;7.25;;
56997;SDS011;42890;44.244;22.530;2023-04-03T16:08:22;9.75;;;7.60;;
56997;SDS011;42890;44.244;22.530;2023-04-03T16:10:50;9.95;;;7.15;;